• Join FlightAware (Why Join?)
  • Login
  • US Flag 
03:44AM EST


 

Airport Tracker/Info


-or-


 

Live Flight TrackerFlight Track Log ✈ N121JM ✈ 17-Nov-2013 ✈ KBZN - KMMU

Flight Track Log - Related Links

Times and Time Zones

All times are in EST time to prevent confusion due to time zone crossing. See the N121JM flight status page for this flight to view local times or setup timezone preferences in your user account.

Time Position Orientation Groundspeed Altitude Reporting Facility
EST Latitude Longitude Course Direction KTS MPH feet Rate Location/Type
01:22PM 45.7922 -111.1731 280° West 213 245 5,200  Level Salt Lake Center
01:23PM 45.7997 -111.2367 280° West 207 238 7,800 3,240 Climbing Salt Lake Center
01:24PM 45.7419 -111.2697 202° Southwest 230 265 11,100 2,880 Climbing Salt Lake Center
01:25PM 45.6744 -111.2219 154° Southeast 277 319 13,800 1,920 Climbing Salt Lake Center
01:26PM 45.6150 -111.1258 131° Southeast 345 397 15,100 1,500 Climbing Salt Lake Center
01:27PM 45.6308 -110.9772 81° East 384 442 16,900 1,620 Climbing Salt Lake Center
01:28PM 45.6475 -110.8061 82° East 443 510 18,500 1,560 Climbing Salt Lake Center
01:29PM 45.6714 -110.6261 79° East 458 527 20,200 1,740 Climbing Salt Lake Center
01:30PM 45.7017 -110.4544 76° East 463 533 22,100 1,440 Climbing Salt Lake Center
01:31PM 45.7122 -110.2528 86° East 499 574 23,200 1,200 Climbing Salt Lake Center
01:32PM 45.7067 -110.0411 92° East 526 605 24,700 1,560 Climbing Salt Lake Center
01:33PM 45.6969 -109.7739 93° East 559 643 26,500 1,560 Climbing Salt Lake Center
01:34PM 45.6864 -109.5528 94° East 560 644 28,000 1,440 Climbing Salt Lake Center
01:35PM 45.6761 -109.3281 94° East 566 651 29,500 1,440 Climbing Salt Lake Center
01:36PM 45.6656 -109.1022 94° East 568 654 31,000 1,440 Climbing Salt Lake Center
01:37PM 45.6547 -108.8753 94° East 571 657 32,500 1,500 Climbing Salt Lake Center
01:39PM 45.6439 -108.6494 94° East 569 655 34,100 1,500 Climbing Salt Lake Center
01:40PM 45.6322 -108.4267 94° East 561 646 35,600 1,440 Climbing Salt Lake Center
01:41PM 45.6200 -108.2036 94° East 562 647 37,100 1,440 Climbing Salt Lake Center
01:42PM 45.6053 -107.9422 95° East 551 634 38,600 1,380 Climbing Salt Lake Center
01:43PM 45.5925 -107.7258 95° East 547 629 40,000 1,080 Climbing Salt Lake Center
01:44PM 45.5800 -107.5111 95° East 542 624 40,900 480 Climbing Salt Lake Center
01:45PM 45.5664 -107.2986 95° East 540 621 41,000  Climbing Salt Lake Center
01:46PM 45.5531 -107.0922 95° East 525 604 41,000  Level Salt Lake Center
01:47PM 45.5394 -106.8842 95° East 525 604 41,000  Level Salt Lake Center
01:48PM 45.5269 -106.6742 95° East 529 609 41,000  Level Salt Lake Center
01:49PM 45.5128 -106.4600 95° East 539 620 41,000  Level Salt Lake Center
01:50PM 45.4944 -106.2039 96° East 543 625 41,000  Level Salt Lake Center
01:51PM 45.4786 -105.9897 96° East 544 626 41,000  Level Salt Lake Center
01:52PM 45.4619 -105.7750 96° East 546 628 41,000  Level Salt Lake Center
01:53PM 45.4453 -105.5608 96° East 545 627 41,000  Level Salt Lake Center
01:54PM 45.4283 -105.3472 96° East 544 626 41,000  Level Salt Lake Center
01:55PM 45.4119 -105.1342 96° East 545 627 41,000  Level Salt Lake Center
01:56PM 45.3933 -104.9203 97° East 545 627 41,000  Level Salt Lake Center
01:57PM 45.3717 -104.6625 97° East 549 632 41,000  Level Salt Lake Center
01:58PM 45.3558 -104.4681 97° East 546 628 41,000  Level Salt Lake Center
01:59PM 45.3364 -104.2567 97° East 542 624 41,000  Level Salt Lake Center
02:00PM 45.3167 -104.0431 97° East 546 628 41,000  Level Salt Lake Center
02:01PM 45.2922 -103.7847 98° East 553 636 41,000  Level Salt Lake Center
02:02PM 45.2717 -103.5711 98° East 550 633 41,000  Level Salt Lake Center
02:03PM 45.2514 -103.3581 98° East 549 632 41,000  Level Salt Lake Center
02:04PM 45.2397 -103.2325 97° East 551 634 41,000  Level Minneapolis Center
02:05PM 45.2150 -103.0194 99° East 550 633 41,000  Level Minneapolis Center
02:06PM 45.1886 -102.7664 98° East 546 628 41,000  Level Minneapolis Center
02:07PM 45.1669 -102.5550 98° East 544 626 41,000  Level Minneapolis Center
02:08PM 45.1450 -102.3419 98° East 545 627 41,000  Level Minneapolis Center
02:09PM 45.1228 -102.1275 98° East 548 631 41,000  Level Minneapolis Center
02:10PM 45.0997 -101.9133 99° East 550 633 41,000  Level Minneapolis Center
02:11PM 45.0756 -101.7017 99° East 549 632 41,000  Level Minneapolis Center
02:12PM 45.0597 -101.4900 96° East 546 628 41,000  Level Minneapolis Center
02:13PM 45.0469 -101.2772 95° East 545 627 41,000  Level Minneapolis Center
02:14PM 45.0333 -101.0622 95° East 547 629 41,000  Level Minneapolis Center
02:15PM 45.0181 -100.8028 95° East 552 635 41,000  Level Minneapolis Center
02:16PM 45.0025 -100.5881 96° East 551 634 41,000  Level Minneapolis Center
02:17PM 44.9856 -100.3736 96° East 551 634 41,000  Level Minneapolis Center
02:18PM 44.9694 -100.1614 96° East 550 633 41,000  Level Minneapolis Center
02:19PM 44.9533 -99.9547 96° East 549 632 41,000  Level Minneapolis Center
02:20PM 44.9364 -99.7489 97° East 546 628 41,000  Level Minneapolis Center
02:21PM 44.9150 -99.4967 97° East 545 627 41,000  Level Minneapolis Center
02:22PM 44.8975 -99.2867 97° East 543 625 41,000  Level Minneapolis Center
02:23PM 44.8800 -99.0767 97° East 542 624 41,000  Level Minneapolis Center
02:24PM 44.8608 -98.8675 97° East 540 621 41,000  Level Minneapolis Center
02:25PM 44.8431 -98.6603 97° East 536 617 41,000  Level Minneapolis Center
02:26PM 44.8242 -98.4517 97° East 537 618 41,000  Level Minneapolis Center
02:27PM 44.8031 -98.2322 98° East 530 610 41,000  Level Minneapolis Center
02:28PM 44.7833 -98.0283 98° East 527 606 41,000  Level Minneapolis Center
02:30PM 44.7631 -97.8219 98° East 531 611 41,000  Level Minneapolis Center
02:31PM 44.7425 -97.6169 98° East 531 611 41,000  Level Minneapolis Center
02:32PM 44.7194 -97.3700 97° East 532 612 41,000  Level Minneapolis Center
02:33PM 44.6969 -97.1667 99° East 527 606 41,000  Level Minneapolis Center
02:34PM 44.6756 -96.9619 98° East 529 609 41,000  Level Minneapolis Center
02:35PM 44.6533 -96.7564 99° East 531 611 41,000  Level Minneapolis Center
02:36PM 44.6308 -96.5508 99° East 532 612 41,000  Level Minneapolis Center
02:37PM 44.6078 -96.3442 99° East 534 615 41,000  Level Minneapolis Center
02:38PM 44.5869 -96.1372 98° East 532 612 41,000  Level Minneapolis Center
02:39PM 44.5628 -95.9319 99° East 530 610 41,000  Level Minneapolis Center
02:45PM 44.4138 -94.7339 99° East 527 606 41,000  Level FlightAware ADS-B (LPVM)
02:47PM 44.3438 -94.2386 101° East 527 606 41,000  Level FlightAware ADS-B (LPVM)
02:50PM 44.2501 -93.5919 101° East 524 603 41,000  Level FlightAware ADS-B (LPVM)
02:52PM 44.2091 -93.3210 102° East 522 601 41,000  Level FlightAware ADS-B (LPVM)
02:52PM 44.1886 -93.1853 102° East 521 600 41,000  Level FlightAware ADS-B (LPVM)
02:53PM 44.1816 -93.1395 102° East 522 601 41,000  Level FlightAware ADS-B (LPVM)
02:54PM 44.1391 -92.8659 102° East 522 601 41,000  Level FlightAware ADS-B (LPVM)
02:58PM 44.0134 -92.0763 102° East 524 603 41,000  Level FlightAware ADS-B (LPVM)
02:59PM 43.9833 -91.8926 103° East 521 600 41,000  Level FlightAware ADS-B (LPVM)
03:01PM 43.9139 -91.4893 103° East 521 600 41,000  Level FlightAware ADS-B (LPVM)
03:02PM 43.8782 -91.3708 113° Southeast 515 593 41,000  Level FlightAware ADS-B (LPVM)
03:02PM 43.8423 -91.2705 116° Southeast 516 594 41,000  Level FlightAware ADS-B (LPVM)
03:03PM 43.8030 -91.1601 116° Southeast 516 594 41,000  Level FlightAware ADS-B (LPVM)
03:03PM 43.7744 -91.0800 116° Southeast 515 593 41,000  Level FlightAware ADS-B (LPVM)
03:04PM 43.7322 -90.9094 116° Southeast 518 596 41,000  Level Chicago Center
03:05PM 43.7153 -90.7092 97° East 525 604 41,000  Level Chicago Center
03:06PM 43.6994 -90.5092 96° East 525 604 41,000  Level Chicago Center
03:07PM 43.6842 -90.3092 96° East 526 605 41,000  Level Chicago Center
03:08PM 43.6675 -90.1206 97° East 518 596 41,000  Level Chicago Center
03:09PM 43.6525 -89.9211 96° East 521 600 41,000  Level Chicago Center
03:10PM 43.6319 -89.6833 97° East 519 597 41,000  Level Chicago Center
03:11PM 43.6169 -89.4869 96° East 518 596 41,000  Level Chicago Center
03:12PM 43.5989 -89.2900 97° East 517 595 41,000  Level Chicago Center
03:13PM 43.5808 -89.0939 97° East 517 595 41,000  Level Chicago Center
03:14PM 43.5622 -88.8983 97° East 515 593 41,000  Level Chicago Center
03:15PM 43.5444 -88.7033 97° East 513 590 41,000  Level Chicago Center
03:16PM 43.5253 -88.5000 97° East 517 595 41,000  Level Chicago Center
03:17PM 43.5056 -88.2997 98° East 516 594 41,000  Level Chicago Center
03:19PM 43.4858 -88.1025 98° East 517 595 41,000  Level Chicago Center
03:20PM 43.4656 -87.9086 98° East 513 590 41,000  Level Chicago Center
03:21PM 43.4458 -87.7161 98° East 509 586 41,000  Level Chicago Center
03:22PM 43.4253 -87.5219 98° East 513 590 41,000  Level Chicago Center
03:23PM 43.4042 -87.3064 98° East 521 600 41,000  Level Chicago Center
03:24PM 43.3833 -87.1100 98° East 521 600 41,000  Level Chicago Center
03:25PM 43.3614 -86.9114 99° East 526 605 41,000  Level Chicago Center
03:26PM 43.3392 -86.7144 99° East 525 604 41,000  Level Chicago Center
03:27PM 43.3169 -86.5128 99° East 534 615 41,000  Level Chicago Center
03:28PM 43.2933 -86.3047 99° East 545 627 41,000  Level Chicago Center
03:29PM 43.2692 -86.0919 99° East 554 638 41,000  Level Chicago Center
03:30PM 43.2444 -85.8811 99° East 552 635 41,000 60 Level Chicago Center
03:31PM 43.2194 -85.6786 100° East 536 617 41,200 360 Climbing Chicago Center
03:32PM 43.1947 -85.4825 100° East 523 602 41,800 600 Climbing Chicago Center
03:33PM 43.1706 -85.2872 100° East 518 596 42,500 480 Climbing Chicago Center
03:34PM 43.1467 -85.0894 99° East 524 603 42,900 240 Climbing Chicago Center
03:35PM 43.1211 -84.8942 100° East 523 602 43,000  Climbing Chicago Center
03:36PM 43.0919 -84.6589 100° East 523 602 43,000  Level Chicago Center
03:37PM 43.0656 -84.4639 100° East 523 602 43,000  Level Chicago Center
03:38PM 43.0400 -84.2703 100° East 519 597 43,000  Level Chicago Center
03:39PM 43.0131 -84.0775 101° East 519 597 43,000  Level Chicago Center
03:40PM 42.9803 -83.8556 101° East 522 601 43,000  Level Cleveland Center
03:41PM 42.9244 -83.6769 113° Southeast 512 589 43,000  Level Cleveland Center
03:42PM 42.8439 -83.5269 126° Southeast 494 568 43,000  Level Cleveland Center
03:43PM 42.7600 -83.3772 127° Southeast 494 568 43,000  Level Cleveland Center
03:44PM 42.6597 -83.1983 127° Southeast 492 566 43,000  Level Cleveland Center
03:45PM 42.5742 -83.0469 127° Southeast 499 574 43,000  Level Cleveland Center
03:46PM 42.4892 -82.8978 128° Southeast 498 573 43,000  Level Cleveland Center
03:47PM 42.4178 -82.7367 121° Southeast 504 580 43,000  Level Cleveland Center
03:48PM 42.3742 -82.5492 107° East 518 596 43,000  Level Cleveland Center
03:49PM 42.3642 -82.3464 94° East 542 624 43,000  Level Cleveland Center
03:50PM 42.3553 -82.1142 93° East 545 627 43,000  Level Cleveland Center
03:51PM 42.3467 -81.9097 93° East 541 623 43,000  Level Cleveland Center
03:52PM 42.3364 -81.7033 94° East 543 625 43,000  Level Cleveland Center
03:53PM 42.3264 -81.5003 94° East 539 620 43,000  Level Cleveland Center
03:54PM 42.3167 -81.3006 94° East 530 610 43,000  Level Cleveland Center
03:55PM 42.3064 -81.0981 94° East 532 612 43,000  Level Cleveland Center
03:57PM 42.2967 -80.8992 94° East 528 608 43,000  Level Cleveland Center
03:58PM 42.2861 -80.6994 94° East 526 605 43,000  Level Cleveland Center
03:59PM 42.2744 -80.5003 94° East 529 609 43,000  Level Cleveland Center
04:00PM 42.2489 -80.3000 100° East 533 613 43,000  Level Cleveland Center
04:01PM 42.2203 -80.1017 101° East 533 613 43,000  Level Cleveland Center
04:02PM 42.1878 -79.8831 101° East 528 608 43,000  Level Cleveland Center
04:03PM 42.1586 -79.6894 101° East 531 611 43,000  Level Cleveland Center
04:04PM 42.1283 -79.4942 102° East 533 613 43,000  Level Cleveland Center
04:05PM 42.0972 -79.3000 102° East 535 616 43,000  Level Cleveland Center
04:06PM 42.0672 -79.1014 101° East 542 624 43,000  Level Cleveland Center
04:07PM 42.0369 -78.9064 102° East 535 616 43,000 -1,260 Level Cleveland Center
04:12PM 41.8433 -77.7697 102° East 537 618 35,000 -1,260 Descending FlightAware ADS-B (KWWD)
04:13PM 41.7950 -77.5871 109° East 538 619 35,000 -780 Level FlightAware ADS-B (KWWD)
04:18PM 41.5828 -76.7994 110° East 525 604 31,200 -1,020 Descending FlightAware ADS-B (KWWD)
04:18PM 41.5544 -76.7006 110° East 533 613 30,200 -2,100 Descending New York Center
04:19PM 41.5069 -76.5272 110° East 514 592 28,000 -1,980 Descending New York Center
04:20PM 41.4664 -76.3717 109° East 508 585 26,300 -1,980 Descending New York Center
04:26PM 41.1875 -75.4334 109° East 411 473 14,300 -2,160 Descending FlightAware ADS-B (KWWD)
04:27PM 41.1619 -75.3578 114° Southeast 407 468 12,400 -2,640 Descending FlightAware ADS-B (KWWD)
04:28PM 41.1061 -75.1906 114° Southeast 382 440 9,100 -2,100 Descending New York Center
04:29PM 41.0722 -75.0894 114° Southeast 318 366 7,300 -1,500 Descending New York Center
04:30PM 41.0381 -74.9936 115° Southeast 285 328 6,200 -660 Descending New York Center
04:31PM 41.0042 -74.8981 115° Southeast 285 328 6,000 -780 Descending New York Center
04:32PM 40.9719 -74.8000 113° Southeast 290 334 4,700 -600 Descending New York Center
04:38PM 40.9597 -74.3146 113° Southeast 217 250 2,300 -480 Descending FlightAware ADS-B
04:38PM 40.9655 -74.2964 67° East 211 243 2,000 -780 Descending FlightAware ADS-B
04:39PM 40.9634 -74.2773 98° East 196 226 1,900 -180 Descending FlightAware ADS-B
04:39PM 40.9516 -74.2645 141° Southeast 177 204 1,900  Level FlightAware ADS-B
04:39PM 40.9435 -74.2663 190° South 176 203 1,900  Level FlightAware ADS-B
04:39PM 40.9406 -74.2689 214° Southwest 178 205 1,900  Level FlightAware ADS-B
04:39PM 40.9378 -74.2725 224° Southwest 179 206 1,900  Level FlightAware ADS-B
04:39PM 40.9290 -74.2855 228° Southwest 181 208 1,900 60 Level FlightAware ADS-B
04:40PM 40.9044 -74.3128 228° Southwest 101 116 2,000 -120 Climbing New York Center
04:41PM 40.8678 -74.3464 215° Southwest 147 169 1,700 -480 Descending New York Center
04:42PM 40.8358 -74.3778 217° Southwest 152 175 1,100 -300 Descending New York Center
04:43PM 40.8078 -74.4092 220° Southwest 152 175 1,100  Level New York Center
04:45PM 40.7993 -74.4149 191° South  Level Estimated
04:52PM 40.7993 -74.4149 191° South  Level Estimated